Hlavní strana
METAR-TAF:

METAR-TAF

Letiště :

Ashland, Kentucky, Spojené státy americké

zeměpisná šířka: 38-33-16N, zeměpisná délka: 082-44-17W, výška: 166 m

Aktuální stav počasí

Zpráva byla vytvořena před 50 minutami, v 22:56 UTC
Západní vítr 7 kt
Teplota 13°C
Vlhkost vzduchu 72%
Tlak 1009 hPa
Viditelnost: 16.1 km
Polojasno ve výšce 3300 ft
Oblačno až skoro zataženo ve výšce 4200 ft
Zataženo ve výšce 4900 ft

METAR: KDWU 252256Z AUTO 26007KT 10SM SCT033 BKN042 OVC049 13/08 A2980 RMK AO2 SLP093 T01330083

Čas: 18:46 (23:46 UTC)


TAF: chybějící

Stav a předpovědi počasí z více než 4 000 letišť (zprávy METAR a TAF).

Červené a žluté tečky na mapě představují dostupné meteorologické stanice.

Když kurzor umístíte na tečku, zobrazí se název stanice.

Pak kliknutím zobrazíte stav a předpověď počasí.

Chcete-li změnit mapu, kliknutím na zelené tlačítko se znaménkem +mapu přiblížíte, kliknutím na zelené tlačítko se znaménkem – mapu oddálíte a kliknutím na zelené šipky přejdete na sousední mapy.


METAR-TAF: